sensor_id;sensor_type;location;lat;lon;timestamp;pressure;altitude;pressure_sealevel;temperature;humidity
60240;BME280;46102;39.012;-7.064;2023-02-15T00:01:22;99059.97;;;10.28;66.72
60240;BME280;46102;39.012;-7.064;2023-02-15T00:03:23;99070.13;;;10.27;67.06
60240;BME280;46102;39.012;-7.064;2023-02-15T00:05:23;99069.91;;;10.24;66.97
60240;BME280;46102;39.012;-7.064;2023-02-15T00:07:24;99079.25;;;10.23;66.99
60240;BME280;46102;39.012;-7.064;2023-02-15T00:09:25;99071.09;;;10.17;67.26
60240;BME280;46102;39.012;-7.064;2023-02-15T00:11:26;99065.63;;;10.17;67.04
60240;BME280;46102;39.012;-7.064;2023-02-15T00:13:50;99056.88;;;10.15;67.32
60240;BME280;46102;39.012;-7.064;2023-02-15T00:15:51;99061.38;;;10.11;67.32
60240;BME280;46102;39.012;-7.064;2023-02-15T00:17:52;99060.84;;;10.09;67.48
60240;BME280;46102;39.012;-7.064;2023-02-15T00:19:53;99066.63;;;10.08;67.52
60240;BME280;46102;39.012;-7.064;2023-02-15T00:21:54;99063.19;;;10.02;67.56
60240;BME280;46102;39.012;-7.064;2023-02-15T00:23:54;99056.66;;;9.98;67.64
60240;BME280;46102;39.012;-7.064;2023-02-15T00:26:10;99056.16;;;9.96;68.14
60240;BME280;46102;39.012;-7.064;2023-02-15T00:28:12;99061.91;;;9.94;67.71
60240;BME280;46102;39.012;-7.064;2023-02-15T00:30:13;99065.78;;;9.93;67.76
60240;BME280;46102;39.012;-7.064;2023-02-15T00:32:13;99064.16;;;9.92;67.92
60240;BME280;46102;39.012;-7.064;2023-02-15T00:34:15;99062.31;;;9.88;68.15
60240;BME280;46102;39.012;-7.064;2023-02-15T00:36:17;99062.63;;;9.86;68.19
60240;BME280;46102;39.012;-7.064;2023-02-15T00:38:18;99060.06;;;9.90;67.99
60240;BME280;46102;39.012;-7.064;2023-02-15T00:40:18;99062.53;;;9.91;68.14
60240;BME280;46102;39.012;-7.064;2023-02-15T00:42:19;99057.16;;;9.86;68.11
60240;BME280;46102;39.012;-7.064;2023-02-15T00:44:20;99056.00;;;9.87;68.15
60240;BME280;46102;39.012;-7.064;2023-02-15T00:46:21;99058.75;;;9.87;68.02
60240;BME280;46102;39.012;-7.064;2023-02-15T00:48:22;99061.50;;;9.87;67.79
60240;BME280;46102;39.012;-7.064;2023-02-15T00:50:23;99063.44;;;9.87;67.94
60240;BME280;46102;39.012;-7.064;2023-02-15T00:52:23;99063.72;;;9.85;67.99
60240;BME280;46102;39.012;-7.064;2023-02-15T00:54:24;99067.88;;;9.83;67.80
60240;BME280;46102;39.012;-7.064;2023-02-15T00:56:25;99067.59;;;9.84;67.91
60240;BME280;46102;39.012;-7.064;2023-02-15T00:58:28;99070.63;;;9.83;68.03
60240;BME280;46102;39.012;-7.064;2023-02-15T01:00:29;99070.63;;;9.83;68.17
60240;BME280;46102;39.012;-7.064;2023-02-15T01:02:31;99070.63;;;9.83;67.88
60240;BME280;46102;39.012;-7.064;2023-02-15T01:04:31;99070.34;;;9.84;68.11
60240;BME280;46102;39.012;-7.064;2023-02-15T01:06:32;99068.41;;;9.85;68.01
60240;BME280;46102;39.012;-7.064;2023-02-15T01:08:33;99066.22;;;9.82;68.23
60240;BME280;46102;39.012;-7.064;2023-02-15T01:10:35;99064.91;;;9.79;67.90
60240;BME280;46102;39.012;-7.064;2023-02-15T01:12:35;99061.47;;;9.73;68.21
60240;BME280;46102;39.012;-7.064;2023-02-15T01:14:36;99059.81;;;9.72;68.49
60240;BME280;46102;39.012;-7.064;2023-02-15T01:16:38;99065.28;;;9.72;68.86
60240;BME280;46102;39.012;-7.064;2023-02-15T01:18:39;99048.94;;;9.67;68.84
60240;BME280;46102;39.012;-7.064;2023-02-15T01:20:42;99053.09;;;9.65;68.63
60240;BME280;46102;39.012;-7.064;2023-02-15T01:22:43;99044.38;;;9.63;69.52
60240;BME280;46102;39.012;-7.064;2023-02-15T01:24:44;99043.56;;;9.62;69.32
60240;BME280;46102;39.012;-7.064;2023-02-15T01:26:45;99047.19;;;9.57;69.59
60240;BME280;46102;39.012;-7.064;2023-02-15T01:28:46;99044.97;;;9.59;69.00
60240;BME280;46102;39.012;-7.064;2023-02-15T01:30:47;99049.72;;;9.54;69.31
60240;BME280;46102;39.012;-7.064;2023-02-15T01:32:49;99049.19;;;9.52;69.83
60240;BME280;46102;39.012;-7.064;2023-02-15T01:34:50;99046.16;;;9.53;69.51
60240;BME280;46102;39.012;-7.064;2023-02-15T01:36:51;99049.72;;;9.54;70.07
60240;BME280;46102;39.012;-7.064;2023-02-15T01:38:52;99047.06;;;9.49;70.07
60240;BME280;46102;39.012;-7.064;2023-02-15T01:40:53;99045.94;;;9.50;69.68
60240;BME280;46102;39.012;-7.064;2023-02-15T01:43:14;99046.81;;;9.45;69.82
60240;BME280;46102;39.012;-7.064;2023-02-15T01:47:41;99051.78;;;9.43;70.28
60240;BME280;46102;39.012;-7.064;2023-02-15T01:49:44;99052.91;;;9.42;70.20
60240;BME280;46102;39.012;-7.064;2023-02-15T01:51:48;99054.00;;;9.41;70.56
60240;BME280;46102;39.012;-7.064;2023-02-15T01:53:59;99052.91;;;9.42;70.37
60240;BME280;46102;39.012;-7.064;2023-02-15T01:56:05;99055.34;;;9.44;70.29
60240;BME280;46102;39.012;-7.064;2023-02-15T01:58:08;99044.09;;;9.45;70.69
60240;BME280;46102;39.012;-7.064;2023-02-15T02:00:10;99041.94;;;9.42;70.41
60240;BME280;46102;39.012;-7.064;2023-02-15T02:02:13;99044.97;;;9.41;71.03
60240;BME280;46102;39.012;-7.064;2023-02-15T02:06:19;99051.25;;;9.41;70.93
60240;BME280;46102;39.012;-7.064;2023-02-15T02:08:20;99056.47;;;9.43;70.84
60240;BME280;46102;39.012;-7.064;2023-02-15T02:10:22;99054.84;;;9.42;70.74
60240;BME280;46102;39.012;-7.064;2023-02-15T02:12:24;99050.78;;;9.39;71.03
60240;BME280;46102;39.012;-7.064;2023-02-15T02:14:26;99053.94;;;9.46;70.66
60240;BME280;46102;39.012;-7.064;2023-02-15T02:16:41;99056.75;;;9.41;71.08
60240;BME280;46102;39.012;-7.064;2023-02-15T02:18:59;99058.09;;;9.44;71.11
60240;BME280;46102;39.012;-7.064;2023-02-15T02:24:15;99049.88;;;9.44;70.94
60240;BME280;46102;39.012;-7.064;2023-02-15T02:26:28;99052.09;;;9.42;70.61
60240;BME280;46102;39.012;-7.064;2023-02-15T02:35:29;99066.13;;;9.54;70.94
60240;BME280;46102;39.012;-7.064;2023-02-15T02:42:09;99067.47;;;9.56;71.16
60240;BME280;46102;39.012;-7.064;2023-02-15T02:44:17;99066.66;;;9.56;70.89
60240;BME280;46102;39.012;-7.064;2023-02-15T02:46:37;99063.84;;;9.61;70.65
60240;BME280;46102;39.012;-7.064;2023-02-15T02:48:40;99070.66;;;9.64;70.54
60240;BME280;46102;39.012;-7.064;2023-02-15T02:50:41;99069.53;;;9.65;70.57
60240;BME280;46102;39.012;-7.064;2023-02-15T02:52:48;99066.00;;;9.64;70.63
60240;BME280;46102;39.012;-7.064;2023-02-15T02:54:49;99078.78;;;9.69;70.08
60240;BME280;46102;39.012;-7.064;2023-02-15T02:56:51;99070.25;;;9.70;70.41
60240;BME280;46102;39.012;-7.064;2023-02-15T02:58:59;99079.88;;;9.68;70.50
60240;BME280;46102;39.012;-7.064;2023-02-15T03:03:13;99075.03;;;9.65;70.56
60240;BME280;46102;39.012;-7.064;2023-02-15T03:05:20;99071.47;;;9.64;69.83
60240;BME280;46102;39.012;-7.064;2023-02-15T03:07:22;99071.75;;;9.63;69.96
60240;BME280;46102;39.012;-7.064;2023-02-15T03:09:45;99078.03;;;9.63;70.14
60240;BME280;46102;39.012;-7.064;2023-02-15T03:11:48;99080.06;;;9.57;70.33
60240;BME280;46102;39.012;-7.064;2023-02-15T03:13:50;99075.69;;;9.56;70.40
60240;BME280;46102;39.012;-7.064;2023-02-15T03:15:51;99079.03;;;9.53;70.29
60240;BME280;46102;39.012;-7.064;2023-02-15T03:18:11;99076.56;;;9.52;70.10
60240;BME280;46102;39.012;-7.064;2023-02-15T03:20:23;99080.66;;;9.54;70.29
60240;BME280;46102;39.012;-7.064;2023-02-15T03:22:34;99076.00;;;9.55;70.26
60240;BME280;46102;39.012;-7.064;2023-02-15T03:26:48;99072.66;;;9.58;70.09
60240;BME280;46102;39.012;-7.064;2023-02-15T03:28:53;99075.41;;;9.58;70.11
60240;BME280;46102;39.012;-7.064;2023-02-15T03:31:00;99067.41;;;9.62;69.42
60240;BME280;46102;39.012;-7.064;2023-02-15T03:33:02;99067.69;;;9.60;69.62
60240;BME280;46102;39.012;-7.064;2023-02-15T03:35:06;99069.09;;;9.57;69.93
60240;BME280;46102;39.012;-7.064;2023-02-15T03:41:31;99077.09;;;9.54;69.81
60240;BME280;46102;39.012;-7.064;2023-02-15T03:43:51;99068.06;;;9.53;69.77
60240;BME280;46102;39.012;-7.064;2023-02-15T03:45:56;99069.78;;;9.49;69.62
60240;BME280;46102;39.012;-7.064;2023-02-15T03:48:01;99069.47;;;9.51;69.27
60240;BME280;46102;39.012;-7.064;2023-02-15T03:52:28;99069.34;;;9.42;70.01
60240;BME280;46102;39.012;-7.064;2023-02-15T03:54:32;99071.84;;;9.38;69.84
60240;BME280;46102;39.012;-7.064;2023-02-15T03:56:52;99066.16;;;9.35;69.75
60240;BME280;46102;39.012;-7.064;2023-02-15T03:59:14;99061.56;;;9.30;69.83
60240;BME280;46102;39.012;-7.064;2023-02-15T04:02:19;99060.31;;;9.23;69.67
60240;BME280;46102;39.012;-7.064;2023-02-15T04:04:25;99054.63;;;9.19;69.81
60240;BME280;46102;39.012;-7.064;2023-02-15T04:06:27;99060.16;;;9.14;69.51
60240;BME280;46102;39.012;-7.064;2023-02-15T04:08:28;99055.78;;;9.13;69.58
60240;BME280;46102;39.012;-7.064;2023-02-15T04:10:47;99059.94;;;9.10;69.78
60240;BME280;46102;39.012;-7.064;2023-02-15T04:12:56;99052.31;;;9.07;69.81
60240;BME280;46102;39.012;-7.064;2023-02-15T04:14:57;99056.97;;;9.07;69.64
60240;BME280;46102;39.012;-7.064;2023-02-15T04:17:16;99051.81;;;9.05;69.52
60240;BME280;46102;39.012;-7.064;2023-02-15T04:19:17;99049.34;;;9.04;69.12
60240;BME280;46102;39.012;-7.064;2023-02-15T04:21:36;99055.44;;;9.01;69.11
60240;BME280;46102;39.012;-7.064;2023-02-15T04:23:55;99057.66;;;8.99;68.74
60240;BME280;46102;39.012;-7.064;2023-02-15T04:26:15;99049.81;;;8.92;68.78
60240;BME280;46102;39.012;-7.064;2023-02-15T04:28:15;99065.91;;;8.93;68.95
60240;BME280;46102;39.012;-7.064;2023-02-15T04:30:18;99056.69;;;8.89;68.86
60240;BME280;46102;39.012;-7.064;2023-02-15T04:32:19;99056.69;;;8.89;69.18
60240;BME280;46102;39.012;-7.064;2023-02-15T04:34:20;99061.84;;;8.91;68.76
60240;BME280;46102;39.012;-7.064;2023-02-15T04:36:21;99066.06;;;8.83;68.92
60240;BME280;46102;39.012;-7.064;2023-02-15T04:38:22;99062.78;;;8.81;68.91
60240;BME280;46102;39.012;-7.064;2023-02-15T04:40:23;99059.25;;;8.81;69.44
60240;BME280;46102;39.012;-7.064;2023-02-15T04:42:25;99073.50;;;8.78;69.12
60240;BME280;46102;39.012;-7.064;2023-02-15T04:44:26;99075.72;;;8.75;69.42
60240;BME280;46102;39.012;-7.064;2023-02-15T04:46:27;99076.22;;;8.78;68.93
60240;BME280;46102;39.012;-7.064;2023-02-15T04:48:28;99067.16;;;8.82;68.78
60240;BME280;46102;39.012;-7.064;2023-02-15T04:50:29;99070.22;;;8.75;69.06
60240;BME280;46102;39.012;-7.064;2023-02-15T04:52:29;99071.94;;;8.71;68.79
60240;BME280;46102;39.012;-7.064;2023-02-15T04:54:30;99074.91;;;8.75;68.63
60240;BME280;46102;39.012;-7.064;2023-02-15T04:56:32;99073.84;;;8.71;69.31
60240;BME280;46102;39.012;-7.064;2023-02-15T04:58:34;99067.81;;;8.74;69.15
60240;BME280;46102;39.012;-7.064;2023-02-15T05:00:37;99077.34;;;8.77;69.01
60240;BME280;46102;39.012;-7.064;2023-02-15T05:02:38;99082.38;;;8.69;68.72
60240;BME280;46102;39.012;-7.064;2023-02-15T05:04:38;99080.72;;;8.68;68.75
60240;BME280;46102;39.012;-7.064;2023-02-15T05:06:39;99083.97;;;8.70;68.79
60240;BME280;46102;39.012;-7.064;2023-02-15T05:08:40;99078.78;;;8.69;68.86
60240;BME280;46102;39.012;-7.064;2023-02-15T05:10:41;99081.00;;;8.67;68.83
60240;BME280;46102;39.012;-7.064;2023-02-15T05:12:41;99083.47;;;8.68;68.72
60240;BME280;46102;39.012;-7.064;2023-02-15T05:14:42;99083.69;;;8.72;68.69
60240;BME280;46102;39.012;-7.064;2023-02-15T05:16:43;99077.19;;;8.68;68.54
60240;BME280;46102;39.012;-7.064;2023-02-15T05:18:43;99081.59;;;8.64;68.95
60240;BME280;46102;39.012;-7.064;2023-02-15T05:20:44;99081.06;;;8.62;68.61
60240;BME280;46102;39.012;-7.064;2023-02-15T05:22:45;99072.66;;;8.58;68.90
60240;BME280;46102;39.012;-7.064;2023-02-15T05:24:46;99080.53;;;8.60;68.87
60240;BME280;46102;39.012;-7.064;2023-02-15T05:27:05;99073.75;;;8.57;68.46
60240;BME280;46102;39.012;-7.064;2023-02-15T05:29:25;99074.03;;;8.55;68.55
60240;BME280;46102;39.012;-7.064;2023-02-15T05:31:25;99074.88;;;8.56;68.58
60240;BME280;46102;39.012;-7.064;2023-02-15T05:33:26;99071.06;;;8.52;68.67
60240;BME280;46102;39.012;-7.064;2023-02-15T05:35:27;99065.59;;;8.52;68.45
60240;BME280;46102;39.012;-7.064;2023-02-15T05:37:28;99068.06;;;8.53;68.46
60240;BME280;46102;39.012;-7.064;2023-02-15T05:39:28;99068.88;;;8.54;68.44
60240;BME280;46102;39.012;-7.064;2023-02-15T05:41:29;99072.47;;;8.49;68.40
60240;BME280;46102;39.012;-7.064;2023-02-15T05:43:30;99072.22;;;8.46;68.92
60240;BME280;46102;39.012;-7.064;2023-02-15T05:45:32;99079.63;;;8.45;68.19
60240;BME280;46102;39.012;-7.064;2023-02-15T05:47:32;99085.38;;;8.44;68.22
60240;BME280;46102;39.012;-7.064;2023-02-15T05:49:33;99082.94;;;8.42;68.26
60240;BME280;46102;39.012;-7.064;2023-02-15T05:51:34;99081.31;;;8.41;68.02
60240;BME280;46102;39.012;-7.064;2023-02-15T05:53:37;99083.44;;;8.44;68.30
60240;BME280;46102;39.012;-7.064;2023-02-15T05:55:39;99084.28;;;8.45;68.30
60240;BME280;46102;39.012;-7.064;2023-02-15T05:57:40;99090.28;;;8.47;68.38
60240;BME280;46102;39.012;-7.064;2023-02-15T05:59:41;99097.66;;;8.46;67.87
60240;BME280;46102;39.012;-7.064;2023-02-15T06:01:42;99093.53;;;8.49;67.45
60240;BME280;46102;39.012;-7.064;2023-02-15T06:03:43;99097.84;;;8.55;67.84
60240;BME280;46102;39.012;-7.064;2023-02-15T06:05:44;99100.03;;;8.53;67.60
60240;BME280;46102;39.012;-7.064;2023-02-15T06:07:45;99101.09;;;8.57;67.31
60240;BME280;46102;39.012;-7.064;2023-02-15T06:09:46;99100.28;;;8.57;67.46
60240;BME280;46102;39.012;-7.064;2023-02-15T06:11:46;99103.03;;;8.57;67.59
60240;BME280;46102;39.012;-7.064;2023-02-15T06:13:47;99102.44;;;8.60;67.55
60240;BME280;46102;39.012;-7.064;2023-02-15T06:15:48;99108.75;;;8.60;66.90
60240;BME280;46102;39.012;-7.064;2023-02-15T06:17:49;99110.34;;;8.61;67.74
60240;BME280;46102;39.012;-7.064;2023-02-15T06:19:49;99114.69;;;8.62;67.35
60240;BME280;46102;39.012;-7.064;2023-02-15T06:21:50;99117.97;;;8.64;67.45
60240;BME280;46102;39.012;-7.064;2023-02-15T06:23:51;99119.88;;;8.64;67.13
60240;BME280;46102;39.012;-7.064;2023-02-15T06:25:52;99118.50;;;8.66;66.88
60240;BME280;46102;39.012;-7.064;2023-02-15T06:27:52;99125.59;;;8.67;67.30
60240;BME280;46102;39.012;-7.064;2023-02-15T06:29:53;99128.03;;;8.69;67.30
60240;BME280;46102;39.012;-7.064;2023-02-15T06:31:54;99130.50;;;8.70;67.16
60240;BME280;46102;39.012;-7.064;2023-02-15T06:33:55;99129.41;;;8.71;66.85
60240;BME280;46102;39.012;-7.064;2023-02-15T06:36:01;99133.69;;;8.78;66.25
60240;BME280;46102;39.012;-7.064;2023-02-15T06:38:02;99143.81;;;8.77;66.52
60240;BME280;46102;39.012;-7.064;2023-02-15T06:40:03;99147.69;;;8.76;66.37
60240;BME280;46102;39.012;-7.064;2023-02-15T06:42:04;99150.63;;;8.80;66.61
60240;BME280;46102;39.012;-7.064;2023-02-15T06:44:05;99151.97;;;8.82;66.54
60240;BME280;46102;39.012;-7.064;2023-02-15T06:46:06;99155.19;;;8.89;66.00
60240;BME280;46102;39.012;-7.064;2023-02-15T06:48:06;99157.69;;;8.86;66.25
60240;BME280;46102;39.012;-7.064;2023-02-15T06:50:09;99169.22;;;8.83;66.32
60240;BME280;46102;39.012;-7.064;2023-02-15T06:52:10;99169.50;;;8.81;66.55
60240;BME280;46102;39.012;-7.064;2023-02-15T06:54:11;99167.28;;;8.83;65.75
60240;BME280;46102;39.012;-7.064;2023-02-15T06:56:12;99175.50;;;8.83;65.99
60240;BME280;46102;39.012;-7.064;2023-02-15T06:58:13;99172.44;;;8.85;66.18
60240;BME280;46102;39.012;-7.064;2023-02-15T07:00:14;99166.69;;;8.86;66.42
60240;BME280;46102;39.012;-7.064;2023-02-15T07:02:15;99175.16;;;8.90;65.97
60240;BME280;46102;39.012;-7.064;2023-02-15T07:04:16;99169.69;;;8.90;66.32
60240;BME280;46102;39.012;-7.064;2023-02-15T07:06:16;99169.72;;;8.85;66.69
60240;BME280;46102;39.012;-7.064;2023-02-15T07:08:17;99163.44;;;8.84;66.25
60240;BME280;46102;39.012;-7.064;2023-02-15T07:10:20;99174.97;;;8.81;66.37
60240;BME280;46102;39.012;-7.064;2023-02-15T07:12:21;99168.97;;;8.79;66.97
60240;BME280;46102;39.012;-7.064;2023-02-15T07:14:40;99184.25;;;8.80;66.78
60240;BME280;46102;39.012;-7.064;2023-02-15T07:16:41;99181.88;;;8.73;66.50
60240;BME280;46102;39.012;-7.064;2023-02-15T07:18:42;99194.00;;;8.67;66.89
60240;BME280;46102;39.012;-7.064;2023-02-15T07:20:42;99186.41;;;8.59;66.92
60240;BME280;46102;39.012;-7.064;2023-02-15T07:22:43;99189.41;;;8.58;66.95
60240;BME280;46102;39.012;-7.064;2023-02-15T07:24:44;99191.88;;;8.59;67.50
60240;BME280;46102;39.012;-7.064;2023-02-15T07:26:45;99195.47;;;8.54;67.40
60240;BME280;46102;39.012;-7.064;2023-02-15T07:28:46;99199.31;;;8.53;67.22
60240;BME280;46102;39.012;-7.064;2023-02-15T07:30:46;99201.53;;;8.51;67.60
60240;BME280;46102;39.012;-7.064;2023-02-15T07:32:48;99209.16;;;8.54;67.50
60240;BME280;46102;39.012;-7.064;2023-02-15T07:35:07;99216.06;;;8.47;67.44
60240;BME280;46102;39.012;-7.064;2023-02-15T07:37:08;99216.63;;;8.44;66.92
60240;BME280;46102;39.012;-7.064;2023-02-15T07:39:09;99221.59;;;8.37;67.97
60240;BME280;46102;39.012;-7.064;2023-02-15T07:41:12;99225.13;;;8.37;67.86
60240;BME280;46102;39.012;-7.064;2023-02-15T07:43:13;99229.31;;;8.29;67.76
60240;BME280;46102;39.012;-7.064;2023-02-15T07:45:14;99231.44;;;8.32;67.88
60240;BME280;46102;39.012;-7.064;2023-02-15T07:47:15;99237.22;;;8.31;68.14
60240;BME280;46102;39.012;-7.064;2023-02-15T07:49:16;99236.16;;;8.27;67.91
60240;BME280;46102;39.012;-7.064;2023-02-15T07:51:17;99236.66;;;8.34;67.74
60240;BME280;46102;39.012;-7.064;2023-02-15T07:53:17;99241.63;;;8.27;68.23
60240;BME280;46102;39.012;-7.064;2023-02-15T07:55:19;99241.56;;;8.32;67.58
60240;BME280;46102;39.012;-7.064;2023-02-15T07:57:19;99254.44;;;8.31;67.62
60240;BME280;46102;39.012;-7.064;2023-02-15T07:59:20;99249.50;;;8.33;68.11
60240;BME280;46102;39.012;-7.064;2023-02-15T08:01:31;99261.25;;;8.34;67.80
60240;BME280;46102;39.012;-7.064;2023-02-15T08:03:32;99256.63;;;8.29;67.60
60240;BME280;46102;39.012;-7.064;2023-02-15T08:05:33;99255.78;;;8.34;68.04
60240;BME280;46102;39.012;-7.064;2023-02-15T08:07:34;99259.03;;;8.41;68.01
60240;BME280;46102;39.012;-7.064;2023-02-15T08:09:35;99263.38;;;8.47;68.01
60240;BME280;46102;39.012;-7.064;2023-02-15T08:11:36;99264.97;;;8.48;67.76
60240;BME280;46102;39.012;-7.064;2023-02-15T08:13:37;99258.63;;;8.58;67.23
60240;BME280;46102;39.012;-7.064;2023-02-15T08:15:53;99265.34;;;8.71;66.95
60240;BME280;46102;39.012;-7.064;2023-02-15T08:17:56;99264.63;;;8.89;66.23
60240;BME280;46102;39.012;-7.064;2023-02-15T08:19:56;99260.16;;;8.99;65.71
60240;BME280;46102;39.012;-7.064;2023-02-15T08:22:05;99269.38;;;9.08;64.95
60240;BME280;46102;39.012;-7.064;2023-02-15T08:24:07;99266.47;;;9.23;64.46
60240;BME280;46102;39.012;-7.064;2023-02-15T08:26:09;99269.69;;;9.30;64.19
60240;BME280;46102;39.012;-7.064;2023-02-15T08:28:10;99266.25;;;9.44;64.12
60240;BME280;46102;39.012;-7.064;2023-02-15T08:30:12;99274.38;;;9.49;63.44
60240;BME280;46102;39.012;-7.064;2023-02-15T08:32:14;99274.03;;;9.55;63.16
60240;BME280;46102;39.012;-7.064;2023-02-15T08:34:17;99277.75;;;9.65;63.20
60240;BME280;46102;39.012;-7.064;2023-02-15T08:36:20;99274.00;;;9.79;62.46
60240;BME280;46102;39.012;-7.064;2023-02-15T08:38:22;99284.69;;;10.00;61.44
60240;BME280;46102;39.012;-7.064;2023-02-15T08:40:22;99272.53;;;10.25;60.76
60240;BME280;46102;39.012;-7.064;2023-02-15T08:42:23;99280.69;;;10.49;60.13
60240;BME280;46102;39.012;-7.064;2023-02-15T08:44:24;99275.69;;;10.70;59.37
60240;BME280;46102;39.012;-7.064;2023-02-15T08:46:27;99283.28;;;10.92;58.72
60240;BME280;46102;39.012;-7.064;2023-02-15T08:48:28;99281.13;;;11.03;57.88
60240;BME280;46102;39.012;-7.064;2023-02-15T08:50:29;99282.78;;;11.18;57.86
60240;BME280;46102;39.012;-7.064;2023-02-15T08:52:30;99287.78;;;11.43;57.51
60240;BME280;46102;39.012;-7.064;2023-02-15T08:54:30;99286.56;;;11.63;56.26
60240;BME280;46102;39.012;-7.064;2023-02-15T08:56:37;99284.13;;;11.76;55.39
60240;BME280;46102;39.012;-7.064;2023-02-15T08:58:38;99296.75;;;11.91;55.06
60240;BME280;46102;39.012;-7.064;2023-02-15T09:00:39;99294.50;;;11.93;54.69
60240;BME280;46102;39.012;-7.064;2023-02-15T09:02:39;99288.97;;;12.06;54.78
60240;BME280;46102;39.012;-7.064;2023-02-15T09:04:40;99291.69;;;12.20;54.37
60240;BME280;46102;39.012;-7.064;2023-02-15T09:06:42;99289.72;;;12.35;54.14
60240;BME280;46102;39.012;-7.064;2023-02-15T09:08:44;99291.28;;;12.49;53.60
60240;BME280;46102;39.012;-7.064;2023-02-15T09:10:45;99298.41;;;12.50;53.11
60240;BME280;46102;39.012;-7.064;2023-02-15T09:12:46;99291.75;;;12.65;52.81
60240;BME280;46102;39.012;-7.064;2023-02-15T09:14:47;99302.34;;;12.81;52.74
60240;BME280;46102;39.012;-7.064;2023-02-15T09:16:48;99296.75;;;12.95;52.42
60240;BME280;46102;39.012;-7.064;2023-02-15T09:18:51;99298.59;;;12.99;51.48
60240;BME280;46102;39.012;-7.064;2023-02-15T09:20:53;99298.13;;;13.06;51.52
60240;BME280;46102;39.012;-7.064;2023-02-15T09:22:55;99290.91;;;13.19;51.35
60240;BME280;46102;39.012;-7.064;2023-02-15T09:24:56;99285.66;;;13.31;51.26
60240;BME280;46102;39.012;-7.064;2023-02-15T09:26:57;99287.78;;;13.34;50.92
60240;BME280;46102;39.012;-7.064;2023-02-15T09:28:59;99291.56;;;13.47;50.89
60240;BME280;46102;39.012;-7.064;2023-02-15T09:31:10;99294.84;;;13.66;50.36
60240;BME280;46102;39.012;-7.064;2023-02-15T09:33:11;99298.44;;;13.75;50.37
60240;BME280;46102;39.012;-7.064;2023-02-15T09:35:12;99299.31;;;13.85;50.09
60240;BME280;46102;39.012;-7.064;2023-02-15T09:37:12;99297.06;;;14.04;50.15
60240;BME280;46102;39.012;-7.064;2023-02-15T09:39:19;99300.97;;;14.21;49.89
60240;BME280;46102;39.012;-7.064;2023-02-15T09:42:04;99299.22;;;14.42;48.40
60240;BME280;46102;39.012;-7.064;2023-02-15T09:46:36;99300.03;;;14.69;47.73
60240;BME280;46102;39.012;-7.064;2023-02-15T09:48:42;99297.91;;;14.74;47.69
60240;BME280;46102;39.012;-7.064;2023-02-15T09:55:28;99292.44;;;15.22;46.66
60240;BME280;46102;39.012;-7.064;2023-02-15T10:05:00;99301.53;;;15.69;45.45
60240;BME280;46102;39.012;-7.064;2023-02-15T10:25:20;99301.38;;;16.25;43.49
60240;BME280;46102;39.012;-7.064;2023-02-15T10:27:22;99309.28;;;16.35;43.18
60240;BME280;46102;39.012;-7.064;2023-02-15T10:29:36;99311.38;;;16.38;42.70
60240;BME280;46102;39.012;-7.064;2023-02-15T10:33:46;99309.47;;;16.72;42.39
60240;BME280;46102;39.012;-7.064;2023-02-15T10:40:25;99309.75;;;16.79;41.51
60240;BME280;46102;39.012;-7.064;2023-02-15T10:42:36;99310.63;;;16.92;41.53
60240;BME280;46102;39.012;-7.064;2023-02-15T10:49:08;99308.53;;;17.35;40.57
60240;BME280;46102;39.012;-7.064;2023-02-15T10:51:16;99308.06;;;17.45;40.17
60240;BME280;46102;39.012;-7.064;2023-02-15T10:57:59;99309.47;;;18.25;39.49
60240;BME280;46102;39.012;-7.064;2023-02-15T11:07:12;99310.94;;;18.35;38.56
60240;BME280;46102;39.012;-7.064;2023-02-15T11:09:15;99309.56;;;18.41;38.70
60240;BME280;46102;39.012;-7.064;2023-02-15T11:11:23;99307.03;;;18.64;38.61
60240;BME280;46102;39.012;-7.064;2023-02-15T11:13:32;99308.56;;;18.61;38.22
60240;BME280;46102;39.012;-7.064;2023-02-15T11:15:41;99304.47;;;18.71;38.17
60240;BME280;46102;39.012;-7.064;2023-02-15T11:17:50;99309.22;;;18.70;38.42
60240;BME280;46102;39.012;-7.064;2023-02-15T11:20:08;99314.63;;;18.91;37.95
60240;BME280;46102;39.012;-7.064;2023-02-15T11:22:15;99311.44;;;19.05;37.47
60240;BME280;46102;39.012;-7.064;2023-02-15T11:24:18;99323.28;;;19.18;37.54
60240;BME280;46102;39.012;-7.064;2023-02-15T11:26:28;99306.41;;;19.27;37.25
60240;BME280;46102;39.012;-7.064;2023-02-15T11:28:40;99304.53;;;19.31;37.23
60240;BME280;46102;39.012;-7.064;2023-02-15T11:30:48;99309.22;;;19.43;37.12
60240;BME280;46102;39.012;-7.064;2023-02-15T11:32:57;99300.41;;;19.41;36.75
60240;BME280;46102;39.012;-7.064;2023-02-15T11:37:16;99303.94;;;19.53;37.07
60240;BME280;46102;39.012;-7.064;2023-02-15T11:39:20;99295.31;;;19.74;36.97
60240;BME280;46102;39.012;-7.064;2023-02-15T11:41:26;99294.31;;;19.67;36.19
60240;BME280;46102;39.012;-7.064;2023-02-15T11:43:40;99287.34;;;19.73;36.87
60240;BME280;46102;39.012;-7.064;2023-02-15T11:45:45;99290.38;;;20.00;36.57
60240;BME280;46102;39.012;-7.064;2023-02-15T11:47:47;99281.16;;;20.15;36.14
60240;BME280;46102;39.012;-7.064;2023-02-15T11:49:48;99286.66;;;20.31;35.96
60240;BME280;46102;39.012;-7.064;2023-02-15T11:51:50;99276.34;;;20.31;35.46
60240;BME280;46102;39.012;-7.064;2023-02-15T11:53:52;99275.97;;;20.33;35.58
60240;BME280;46102;39.012;-7.064;2023-02-15T11:55:54;99279.00;;;20.44;35.34
60240;BME280;46102;39.012;-7.064;2023-02-15T11:58:04;99270.13;;;20.38;35.29
60240;BME280;46102;39.012;-7.064;2023-02-15T12:00:14;99273.91;;;20.65;35.45
60240;BME280;46102;39.012;-7.064;2023-02-15T12:02:21;99277.31;;;20.78;34.32
60240;BME280;46102;39.012;-7.064;2023-02-15T12:04:28;99266.03;;;20.90;34.34
60240;BME280;46102;39.012;-7.064;2023-02-15T12:06:33;99265.78;;;20.99;34.25
60240;BME280;46102;39.012;-7.064;2023-02-15T12:08:45;99264.16;;;20.98;34.09
60240;BME280;46102;39.012;-7.064;2023-02-15T12:11:07;99258.19;;;20.76;34.21
60240;BME280;46102;39.012;-7.064;2023-02-15T12:13:14;99253.28;;;20.70;34.29
60240;BME280;46102;39.012;-7.064;2023-02-15T12:15:29;99252.53;;;20.73;34.42
60240;BME280;46102;39.012;-7.064;2023-02-15T12:17:34;99248.38;;;20.63;34.78
60240;BME280;46102;39.012;-7.064;2023-02-15T12:19:40;99255.69;;;20.71;34.36
60240;BME280;46102;39.012;-7.064;2023-02-15T12:21:41;99250.94;;;20.72;33.64
60240;BME280;46102;39.012;-7.064;2023-02-15T12:23:51;99240.91;;;20.67;34.20